Time;durP1;ratioP1;P1;durP2;ratioP2;P2;SDS_P1;SDS_P2;PMS_P1;PMS_P2;Temp;Humidity;BMP_temperature;BMP_pressure;BME280_temperature;BME280_humidity;BME280_pressure;Samples;Min_cycle;Max_cycle;Signal;HPM_P1;HPM_P2
2022/01/07 09:06:50;;;;;;;11.05;5.10;;;;;;;;;;5033682;28;91872;-77
2022/01/07 09:09:17;;;;;;;6.60;3.75;;;;;;;;;;4997997;28;92133;-78
2022/01/07 09:11:43;;;;;;;2.85;2.58;;;;;;;;;;5003706;28;92041;-77
2022/01/07 09:14:10;;;;;;;3.38;2.10;;;;;;;;;;5008430;28;91990;-78
2022/01/07 09:16:36;;;;;;;6.63;2.13;;;;;;;;;;5012753;28;92870;-78
2022/01/07 09:19:03;;;;;;;7.15;2.58;;;;;;;;;;5006467;28;92088;-78
2022/01/07 09:21:29;;;;;;;2.33;1.90;;;;;;;;;;5003494;28;92209;-78
2022/01/07 09:23:56;;;;;;;9.05;2.60;;;;;;;;;;4999310;28;91878;-78
2022/01/07 09:26:22;;;;;;;5.38;2.47;;;;;;;;;;5000513;28;92322;-78
2022/01/07 09:28:48;;;;;;;4.78;1.98;;;;;;;;;;4997864;28;93054;-79
2022/01/07 09:31:15;;;;;;;6.25;2.22;;;;;;;;;;4995189;28;92096;-80
2022/01/07 09:33:42;;;;;;;4.57;2.38;;;;;;;;;;5009562;28;94482;-80
2022/01/07 09:36:28;;;;;;;4.13;2.17;;;;;;;;;;5011776;28;91996;-81
2022/01/07 09:38:55;;;;;;;3.58;2.10;;;;;;;;;;5008769;28;92015;-80
2022/01/07 09:41:21;;;;;;;6.50;2.22;;;;;;;;;;4991984;28;94180;-81
2022/01/07 09:43:48;;;;;;;18.63;2.50;;;;;;;;;;4988955;28;92095;-81
2022/01/07 09:46:15;;;;;;;7.07;1.60;;;;;;;;;;5007535;28;92251;-81
2022/01/07 09:48:42;;;;;;;8.77;2.85;;;;;;;;;;5011192;28;92072;-80
2022/01/07 09:51:09;;;;;;;6.68;2.33;;;;;;;;;;4991843;28;92147;-81
2022/01/07 09:53:35;;;;;;;4.22;2.10;;;;;;;;;;5011328;28;92002;-80
2022/01/07 09:56:05;;;;;;;6.30;1.90;;;;;;;;;;5011653;28;92335;-80
2022/01/07 09:58:33;;;;;;;3.40;1.80;;;;;;;;;;4995028;28;92225;-80
2022/01/07 10:01:00;;;;;;;4.63;1.60;;;;;;;;;;5002990;28;91949;-80
2022/01/07 10:03:34;;;;;;;4.80;1.73;;;;;;;;;;5009449;28;92160;-80
2022/01/07 10:06:01;;;;;;;5.90;1.90;;;;;;;;;;5010430;28;93063;-81
2022/01/07 10:08:29;;;;;;;4.63;2.05;;;;;;;;;;5010713;28;91975;-82
2022/01/07 10:11:14;;;;;;;8.27;1.42;;;;;;;;;;4996322;28;93838;-81
2022/01/07 10:13:48;;;;;;;5.25;1.55;;;;;;;;;;4993659;28;93328;-81
2022/01/07 10:16:16;;;;;;;4.97;2.10;;;;;;;;;;5001172;28;92717;-81
2022/01/07 10:18:51;;;;;;;5.07;1.80;;;;;;;;;;4999075;28;92077;-81
2022/01/07 10:21:18;;;;;;;5.05;1.92;;;;;;;;;;4996484;28;92437;-81
2022/01/07 10:23:45;;;;;;;4.30;1.48;;;;;;;;;;4996085;28;92844;-81
2022/01/07 10:26:13;;;;;;;4.57;2.15;;;;;;;;;;4985850;28;91995;-81
2022/01/07 10:28:39;;;;;;;2.45;1.75;;;;;;;;;;4997238;28;92394;-81
2022/01/07 10:31:07;;;;;;;6.60;2.00;;;;;;;;;;4987711;28;92177;-81
2022/01/07 10:33:38;;;;;;;2.90;1.52;;;;;;;;;;4994538;28;92395;-81
2022/01/07 10:36:07;;;;;;;4.85;1.98;;;;;;;;;;4993832;28;92280;-81
2022/01/07 10:38:35;;;;;;;3.33;1.75;;;;;;;;;;4988544;28;91720;-80
2022/01/07 10:41:02;;;;;;;6.25;1.65;;;;;;;;;;4985284;28;93429;-81
2022/01/07 10:43:33;;;;;;;3.10;1.60;;;;;;;;;;4992061;28;92118;-80
2022/01/07 10:46:11;;;;;;;2.47;1.48;;;;;;;;;;4990586;28;92222;-81
2022/01/07 10:48:39;;;;;;;7.22;2.40;;;;;;;;;;4965483;28;94577;-81
2022/01/07 10:51:25;;;;;;;5.63;2.45;;;;;;;;;;4987867;28;94223;-81
2022/01/07 10:53:55;;;;;;;5.03;1.60;;;;;;;;;;4981611;28;93044;-81
2022/01/07 10:56:35;;;;;;;6.13;1.67;;;;;;;;;;4986504;28;92050;-81
2022/01/07 10:59:03;;;;;;;2.83;1.20;;;;;;;;;;4985783;28;92052;-82
2022/01/07 11:01:30;;;;;;;7.43;2.05;;;;;;;;;;4984409;28;93692;-80
2022/01/07 11:03:58;;;;;;;3.05;1.63;;;;;;;;;;4986191;28;92051;-79
2022/01/07 11:06:25;;;;;;;5.07;1.88;;;;;;;;;;4984026;28;92526;-81
2022/01/07 11:08:53;;;;;;;5.60;2.25;;;;;;;;;;4992370;28;94500;-81
2022/01/07 11:11:20;;;;;;;5.38;1.70;;;;;;;;;;4991867;28;91986;-81
2022/01/07 11:13:47;;;;;;;3.53;1.77;;;;;;;;;;4988600;28;92470;-81
2022/01/07 11:16:13;;;;;;;7.43;1.60;;;;;;;;;;4987907;28;92054;-81
2022/01/07 11:18:41;;;;;;;4.18;1.67;;;;;;;;;;4989216;28;92355;-81
2022/01/07 11:21:09;;;;;;;4.65;1.88;;;;;;;;;;4984118;28;93194;-81
2022/01/07 11:23:37;;;;;;;3.20;1.50;;;;;;;;;;4982945;28;92061;-81
2022/01/07 11:26:05;;;;;;;5.18;1.58;;;;;;;;;;4986987;28;92268;-81
2022/01/07 11:28:32;;;;;;;4.95;1.60;;;;;;;;;;4997137;28;93461;-81
2022/01/07 11:31:03;;;;;;;3.75;1.20;;;;;;;;;;4994479;28;92130;-81
2022/01/07 11:33:30;;;;;;;3.63;1.50;;;;;;;;;;4996142;28;92026;-81
2022/01/07 11:35:57;;;;;;;4.15;1.52;;;;;;;;;;4981570;28;93139;-80
2022/01/07 11:38:35;;;;;;;10.80;1.50;;;;;;;;;;4995700;28;92098;-81
2022/01/07 11:41:02;;;;;;;3.95;1.33;;;;;;;;;;4986248;28;92457;-82
2022/01/07 11:43:33;;;;;;;2.60;1.42;;;;;;;;;;5001669;28;92954;-83
2022/01/07 11:46:20;;;;;;;6.82;1.50;;;;;;;;;;5003391;28;93274;-82
2022/01/07 11:48:46;;;;;;;4.60;1.95;;;;;;;;;;4990249;28;92060;-81
2022/01/07 11:51:14;;;;;;;6.60;1.25;;;;;;;;;;4988998;28;91653;-80
2022/01/07 11:53:43;;;;;;;6.18;1.55;;;;;;;;;;4994330;28;92079;-80
2022/01/07 11:56:11;;;;;;;6.20;1.35;;;;;;;;;;4985665;28;92220;-80
2022/01/07 11:58:41;;;;;;;2.92;1.30;;;;;;;;;;4999741;28;92051;-80
2022/01/07 12:01:21;;;;;;;3.50;1.25;;;;;;;;;;4984992;28;92020;-80
2022/01/07 12:03:49;;;;;;;5.53;1.30;;;;;;;;;;4995747;28;92136;-80
2022/01/07 12:06:23;;;;;;;5.60;1.35;;;;;;;;;;5003707;28;92282;-81
2022/01/07 12:09:10;;;;;;;6.10;1.77;;;;;;;;;;4989586;28;91999;-80
2022/01/07 12:11:37;;;;;;;4.68;1.42;;;;;;;;;;5001430;28;92931;-80
2022/01/07 12:14:10;;;;;;;4.28;1.90;;;;;;;;;;4988664;28;92196;-81
2022/01/07 12:16:37;;;;;;;4.15;1.70;;;;;;;;;;4993110;28;91334;-80
2022/01/07 12:19:26;;;;;;;5.57;1.73;;;;;;;;;;4986251;28;91961;-80
2022/01/07 12:21:54;;;;;;;5.55;1.70;;;;;;;;;;4997783;28;92149;-80
2022/01/07 12:24:21;;;;;;;8.43;1.85;;;;;;;;;;4998374;28;92521;-81
2022/01/07 12:27:04;;;;;;;3.53;1.25;;;;;;;;;;4983003;28;91943;-81
2022/01/07 12:29:31;;;;;;;6.10;1.45;;;;;;;;;;4996863;28;92194;-80
2022/01/07 12:31:58;;;;;;;7.30;1.88;;;;;;;;;;4992679;28;92361;-80
2022/01/07 12:34:28;;;;;;;4.75;1.75;;;;;;;;;;4993473;28;91526;-80
2022/01/07 12:36:56;;;;;;;6.78;1.88;;;;;;;;;;4996994;28;92372;-80
2022/01/07 12:39:27;;;;;;;3.20;1.55;;;;;;;;;;4985079;28;93024;-80
2022/01/07 12:41:55;;;;;;;3.30;1.67;;;;;;;;;;4993357;28;92257;-80
2022/01/07 12:44:22;;;;;;;2.70;1.15;;;;;;;;;;4984120;28;92128;-80
2022/01/07 12:46:56;;;;;;;4.55;1.75;;;;;;;;;;4996202;28;91690;-81
2022/01/07 12:49:38;;;;;;;4.35;1.48;;;;;;;;;;4983941;28;91550;-81
2022/01/07 12:52:06;;;;;;;4.13;1.30;;;;;;;;;;4989743;28;91706;-81
2022/01/07 12:54:33;;;;;;;6.50;1.73;;;;;;;;;;4986948;28;91966;-81
2022/01/07 12:56:59;;;;;;;5.80;1.65;;;;;;;;;;4980201;28;92023;-80
2022/01/07 12:59:26;;;;;;;4.43;1.52;;;;;;;;;;4995717;28;93857;-80
2022/01/07 13:01:53;;;;;;;3.78;1.17;;;;;;;;;;4990306;28;92072;-80
2022/01/07 13:04:21;;;;;;;3.10;1.60;;;;;;;;;;4988402;28;92107;-80
2022/01/07 13:06:56;;;;;;;4.10;1.60;;;;;;;;;;4979861;28;94556;-80
2022/01/07 13:09:24;;;;;;;4.40;1.30;;;;;;;;;;5012133;28;91329;-80
2022/01/07 13:11:52;;;;;;;4.68;1.00;;;;;;;;;;5001857;28;91983;-80
2022/01/07 13:14:19;;;;;;;6.55;1.23;;;;;;;;;;5001933;28;91861;-79
2022/01/07 13:16:53;;;;;;;4.20;1.55;;;;;;;;;;5001566;28;92000;-82
2022/01/07 13:19:20;;;;;;;4.25;1.17;;;;;;;;;;4990375;28;92835;-81
2022/01/07 13:21:49;;;;;;;5.75;1.40;;;;;;;;;;5008163;28;91929;-82
2022/01/07 13:24:17;;;;;;;6.75;1.35;;;;;;;;;;5005501;28;92092;-83
2022/01/07 13:26:51;;;;;;;4.57;1.58;;;;;;;;;;4989155;28;94620;-83
2022/01/07 13:29:23;;;;;;;8.57;1.10;;;;;;;;;;5006181;28;92195;-82
2022/01/07 13:31:56;;;;;;;5.03;1.25;;;;;;;;;;4991819;28;91964;-83
2022/01/07 13:34:23;;;;;;;2.92;0.95;;;;;;;;;;4987480;28;92030;-82
2022/01/07 13:36:50;;;;;;;6.43;1.30;;;;;;;;;;4991299;28;92054;-83
2022/01/07 13:39:18;;;;;;;5.35;1.40;;;;;;;;;;4987931;28;92121;-82
2022/01/07 13:41:57;;;;;;;8.35;0.98;;;;;;;;;;4990347;28;91945;-83
2022/01/07 13:44:24;;;;;;;1.75;0.95;;;;;;;;;;4995382;28;92424;-83
2022/01/07 13:46:56;;;;;;;2.45;1.00;;;;;;;;;;4994283;28;92042;-82
2022/01/07 13:49:22;;;;;;;;;;;;;;;;;;4992780;28;92859;-82
2022/01/07 13:51:52;;;;;;;4.13;1.40;;;;;;;;;;4999119;28;121889;-82
2022/01/07 13:54:20;;;;;;;3.92;1.20;;;;;;;;;;4996518;28;92226;-82
2022/01/07 13:56:57;;;;;;;3.72;1.30;;;;;;;;;;5000245;28;91877;-82
2022/01/07 13:59:24;;;;;;;2.95;1.00;;;;;;;;;;4994905;28;91959;-83
2022/01/07 14:01:55;;;;;;;7.28;1.10;;;;;;;;;;5003254;28;92003;-82
2022/01/07 14:04:38;;;;;;;8.60;1.30;;;;;;;;;;4996964;28;91960;-82
2022/01/07 14:07:21;;;;;;;5.38;1.02;;;;;;;;;;5004357;28;94544;-82
2022/01/07 14:10:00;;;;;;;5.30;1.13;;;;;;;;;;5008877;28;92188;-82
2022/01/07 14:12:27;;;;;;;2.40;1.00;;;;;;;;;;4994713;28;92047;-81
2022/01/07 14:15:10;;;;;;;9.63;1.13;;;;;;;;;;5010120;28;92996;-82
2022/01/07 14:17:37;;;;;;;2.58;0.77;;;;;;;;;;4993197;28;92063;-82
2022/01/07 14:20:05;;;;;;;3.08;0.77;;;;;;;;;;4997153;28;91656;-82
2022/01/07 14:22:34;;;;;;;9.02;0.80;;;;;;;;;;4988391;28;92282;-82
2022/01/07 14:25:06;;;;;;;3.30;1.08;;;;;;;;;;4999394;28;92052;-81
2022/01/07 14:27:34;;;;;;;2.63;1.10;;;;;;;;;;4988274;28;92009;-81
2022/01/07 14:30:01;;;;;;;16.52;0.95;;;;;;;;;;4999765;28;91833;-81
2022/01/07 14:32:28;;;;;;;3.95;1.25;;;;;;;;;;5002685;28;92426;-81
2022/01/07 14:34:56;;;;;;;3.42;1.25;;;;;;;;;;4996700;28;92146;-82
2022/01/07 14:37:25;;;;;;;6.20;0.82;;;;;;;;;;4990324;28;92196;-82
2022/01/07 14:39:52;;;;;;;7.55;1.05;;;;;;;;;;4992621;28;91842;-81
2022/01/07 14:42:18;;;;;;;7.10;1.00;;;;;;;;;;4996680;28;92029;-81
2022/01/07 14:44:45;;;;;;;2.75;1.20;;;;;;;;;;4984153;28;93004;-81
2022/01/07 14:47:12;;;;;;;2.17;0.80;;;;;;;;;;4988068;28;91984;-81
2022/01/07 14:49:39;;;;;;;4.15;0.90;;;;;;;;;;4979331;28;91982;-82
2022/01/07 14:52:06;;;;;;;9.80;1.00;;;;;;;;;;4977778;28;91915;-82
2022/01/07 14:54:33;;;;;;;5.88;1.13;;;;;;;;;;4991779;28;92032;-81
2022/01/07 14:56:59;;;;;;;5.78;0.77;;;;;;;;;;4997821;28;91956;-81
2022/01/07 14:59:33;;;;;;;2.28;0.85;;;;;;;;;;5001878;28;92129;-81
2022/01/07 15:01:59;;;;;;;2.40;0.88;;;;;;;;;;4997855;28;92040;-81
2022/01/07 15:04:26;;;;;;;2.15;0.63;;;;;;;;;;4999461;28;92252;-81
2022/01/07 15:06:52;;;;;;;3.05;0.85;;;;;;;;;;4986566;28;93191;-81
2022/01/07 15:09:19;;;;;;;8.68;0.98;;;;;;;;;;4993691;28;92122;-82
2022/01/07 15:11:45;;;;;;;4.40;0.43;;;;;;;;;;4992793;28;91999;-81
2022/01/07 15:14:16;;;;;;;5.65;1.30;;;;;;;;;;4994260;28;92837;-82
2022/01/07 15:16:49;;;;;;;3.33;0.80;;;;;;;;;;4994371;28;92266;-81
2022/01/07 15:19:22;;;;;;;2.05;0.65;;;;;;;;;;4985223;28;92133;-81
2022/01/07 15:21:49;;;;;;;5.47;1.17;;;;;;;;;;4996575;28;92236;-81
2022/01/07 15:24:17;;;;;;;1.27;0.70;;;;;;;;;;4983634;28;92357;-81
2022/01/07 15:26:44;;;;;;;4.95;0.65;;;;;;;;;;4992600;28;92055;-81
2022/01/07 15:29:11;;;;;;;4.90;0.73;;;;;;;;;;4999084;28;91995;-82
2022/01/07 15:31:38;;;;;;;4.15;0.70;;;;;;;;;;4985283;28;92044;-82
2022/01/07 15:34:08;;;;;;;4.82;1.13;;;;;;;;;;4993216;28;92939;-81
2022/01/07 15:36:36;;;;;;;5.47;1.52;;;;;;;;;;4978896;28;92966;-79
2022/01/07 15:39:05;;;;;;;4.45;0.60;;;;;;;;;;4966504;28;93869;-82
2022/01/07 15:41:31;;;;;;;0.98;0.60;;;;;;;;;;4990897;28;92497;-89
2022/01/07 15:43:58;;;;;;;1.70;0.75;;;;;;;;;;4978048;28;94102;-88
2022/01/07 15:46:26;;;;;;;13.00;0.90;;;;;;;;;;4988136;28;92208;-88
2022/01/07 15:48:53;;;;;;;6.68;1.10;;;;;;;;;;4987521;28;91737;-88
2022/01/07 15:51:24;;;;;;;17.75;2.03;;;;;;;;;;4996151;28;94093;-87
2022/01/07 15:53:51;;;;;;;7.00;1.48;;;;;;;;;;4985362;28;92011;-89
2022/01/07 15:56:18;;;;;;;10.77;1.98;;;;;;;;;;4984500;28;92166;-79
2022/01/07 15:58:44;;;;;;;12.43;2.13;;;;;;;;;;4992498;28;91954;-79
2022/01/07 16:01:10;;;;;;;6.97;1.80;;;;;;;;;;4995493;28;95462;-78
2022/01/07 16:03:38;;;;;;;8.52;1.85;;;;;;;;;;4990598;28;92291;-78
2022/01/07 16:06:05;;;;;;;7.25;2.10;;;;;;;;;;4974875;28;93863;-79
2022/01/07 16:08:33;;;;;;;16.75;2.30;;;;;;;;;;4980318;28;92252;-79
2022/01/07 16:10:59;;;;;;;10.05;1.92;;;;;;;;;;4982639;28;93946;-80
2022/01/07 16:13:26;;;;;;;19.60;2.20;;;;;;;;;;4984549;28;92974;-78
2022/01/07 16:15:52;;;;;;;9.55;1.67;;;;;;;;;;4995064;28;92033;-78
2022/01/07 16:18:19;;;;;;;9.60;2.15;;;;;;;;;;4981961;28;92143;-78
2022/01/07 16:20:45;;;;;;;11.07;1.77;;;;;;;;;;4986540;28;94974;-78
2022/01/07 16:23:19;;;;;;;5.07;1.70;;;;;;;;;;4973800;28;92785;-78
2022/01/07 16:25:46;;;;;;;10.73;2.75;;;;;;;;;;4989558;28;92164;-78
2022/01/07 16:28:12;;;;;;;11.63;2.03;;;;;;;;;;4983921;28;91960;-78
2022/01/07 16:30:39;;;;;;;5.18;1.80;;;;;;;;;;4990309;28;92190;-78
2022/01/07 16:33:06;;;;;;;5.05;1.90;;;;;;;;;;4994408;28;93361;-78
2022/01/07 16:35:32;;;;;;;6.50;2.00;;;;;;;;;;4981805;28;92071;-78
2022/01/07 16:37:59;;;;;;;3.45;1.60;;;;;;;;;;4983311;28;91904;-78
2022/01/07 16:40:25;;;;;;;8.43;1.48;;;;;;;;;;4975165;28;92164;-78
2022/01/07 16:42:51;;;;;;;5.38;1.90;;;;;;;;;;4978437;28;92046;-78
2022/01/07 16:45:21;;;;;;;6.63;1.85;;;;;;;;;;4974148;28;92575;-78
2022/01/07 16:47:47;;;;;;;3.80;1.63;;;;;;;;;;4976725;28;92588;-78
2022/01/07 16:50:16;;;;;;;2.83;1.60;;;;;;;;;;4973889;28;92070;-78
2022/01/07 16:52:43;;;;;;;4.63;1.50;;;;;;;;;;4975448;28;92721;-78
2022/01/07 16:55:16;;;;;;;4.88;1.70;;;;;;;;;;4986641;28;91977;-78
2022/01/07 16:57:43;;;;;;;7.00;1.52;;;;;;;;;;4982526;28;92349;-78
2022/01/07 17:00:10;;;;;;;3.70;1.15;;;;;;;;;;4984463;28;92971;-78
2022/01/07 17:02:37;;;;;;;5.07;1.27;;;;;;;;;;4988200;28;92030;-78
2022/01/07 17:05:04;;;;;;;2.38;1.23;;;;;;;;;;4993535;28;92060;-78
2022/01/07 17:07:30;;;;;;;3.50;1.30;;;;;;;;;;4974212;28;93001;-78
2022/01/07 17:09:56;;;;;;;4.32;1.52;;;;;;;;;;4979084;28;92025;-78
2022/01/07 17:12:23;;;;;;;2.20;0.90;;;;;;;;;;4984265;28;91855;-78
2022/01/07 17:14:49;;;;;;;2.40;1.33;;;;;;;;;;4976323;28;92281;-78
2022/01/07 17:17:19;;;;;;;24.45;9.95;;;;;;;;;;4975052;28;94732;-78
2022/01/07 17:19:46;;;;;;;7.28;3.45;;;;;;;;;;4986911;28;93035;-78
2022/01/07 17:22:12;;;;;;;5.00;2.67;;;;;;;;;;4983140;28;91948;-78
2022/01/07 17:24:39;;;;;;;7.78;2.67;;;;;;;;;;4982511;28;91999;-78
2022/01/07 17:27:08;;;;;;;4.28;3.13;;;;;;;;;;4990526;28;93721;-78
2022/01/07 17:29:34;;;;;;;16.40;3.85;;;;;;;;;;4991489;28;91895;-78
2022/01/07 17:32:00;;;;;;;5.40;2.95;;;;;;;;;;4983528;28;92152;-77
2022/01/07 17:34:29;;;;;;;5.82;2.60;;;;;;;;;;4977808;28;92065;-78
2022/01/07 17:36:55;;;;;;;4.28;2.65;;;;;;;;;;4958125;28;92128;-78
2022/01/07 17:39:22;;;;;;;7.95;2.50;;;;;;;;;;4977009;28;92259;-78
2022/01/07 17:41:48;;;;;;;8.75;2.88;;;;;;;;;;4976904;28;92068;-77
2022/01/07 17:44:16;;;;;;;10.25;2.97;;;;;;;;;;4978167;28;92511;-77
2022/01/07 17:46:43;;;;;;;14.40;2.85;;;;;;;;;;4976812;28;92965;-78
2022/01/07 17:49:10;;;;;;;8.00;2.88;;;;;;;;;;4976733;28;92213;-78
2022/01/07 17:51:37;;;;;;;6.05;3.00;;;;;;;;;;4995997;28;91590;-78
2022/01/07 17:54:03;;;;;;;5.25;2.42;;;;;;;;;;4987611;28;92217;-78
2022/01/07 17:56:30;;;;;;;7.15;2.42;;;;;;;;;;4984102;28;91934;-78
2022/01/07 17:58:56;;;;;;;5.82;2.35;;;;;;;;;;4992919;28;92201;-77
2022/01/07 18:01:23;;;;;;;13.38;2.35;;;;;;;;;;4977941;28;92107;-76
2022/01/07 18:03:50;;;;;;;6.53;2.53;;;;;;;;;;4998118;28;93477;-78
2022/01/07 18:06:16;;;;;;;3.22;1.85;;;;;;;;;;4998083;28;92311;-78
2022/01/07 18:08:42;;;;;;;10.23;2.08;;;;;;;;;;4998091;28;91828;-78
2022/01/07 18:11:09;;;;;;;15.70;2.60;;;;;;;;;;4998768;28;91884;-78
2022/01/07 18:13:35;;;;;;;9.18;2.10;;;;;;;;;;5000989;28;92050;-77
2022/01/07 18:16:05;;;;;;;6.13;2.20;;;;;;;;;;4997792;28;92015;-78
2022/01/07 18:18:33;;;;;;;3.20;1.88;;;;;;;;;;4997848;28;92003;-78
2022/01/07 18:20:59;;;;;;;12.85;2.60;;;;;;;;;;4998133;28;92250;-77
2022/01/07 18:23:26;;;;;;;7.10;2.42;;;;;;;;;;4997842;28;92282;-77
2022/01/07 18:25:52;;;;;;;5.18;2.55;;;;;;;;;;4991929;28;92047;-78
2022/01/07 18:28:19;;;;;;;3.45;2.20;;;;;;;;;;4979017;28;92007;-78
2022/01/07 18:30:46;;;;;;;7.72;2.28;;;;;;;;;;4978432;28;91784;-78
2022/01/07 18:33:12;;;;;;;8.38;2.95;;;;;;;;;;4990413;28;93495;-79
2022/01/07 18:35:39;;;;;;;6.07;2.85;;;;;;;;;;4987005;28;92066;-78
2022/01/07 18:38:07;;;;;;;6.00;3.20;;;;;;;;;;4986427;28;92034;-78
2022/01/07 18:40:33;;;;;;;4.25;3.20;;;;;;;;;;4981400;28;92325;-77
2022/01/07 18:43:00;;;;;;;8.95;3.00;;;;;;;;;;4986716;28;93645;-78
2022/01/07 18:45:26;;;;;;;6.35;2.75;;;;;;;;;;4990588;28;94299;-78
2022/01/07 18:47:52;;;;;;;8.13;3.40;;;;;;;;;;4978370;28;92038;-78
2022/01/07 18:50:21;;;;;;;10.80;2.80;;;;;;;;;;4983740;28;92981;-78
2022/01/07 18:52:47;;;;;;;5.03;2.72;;;;;;;;;;4977872;28;92972;-78
2022/01/07 18:55:14;;;;;;;5.68;2.80;;;;;;;;;;4991393;28;91951;-78
2022/01/07 18:57:41;;;;;;;3.15;1.98;;;;;;;;;;4963086;28;93348;-78
2022/01/07 19:00:10;;;;;;;4.80;2.90;;;;;;;;;;4991453;28;92255;-78
2022/01/07 19:02:41;;;;;;;6.57;3.20;;;;;;;;;;4986339;28;92090;-78
2022/01/07 19:05:08;;;;;;;6.40;2.50;;;;;;;;;;4980445;28;93172;-78
2022/01/07 19:07:35;;;;;;;7.40;2.85;;;;;;;;;;4982743;28;92288;-78
2022/01/07 19:10:02;;;;;;;8.98;3.15;;;;;;;;;;4977723;28;91768;-78
2022/01/07 19:12:29;;;;;;;11.80;2.50;;;;;;;;;;4993135;28;92093;-78
2022/01/07 19:14:55;;;;;;;9.13;2.58;;;;;;;;;;4997521;28;91940;-78
2022/01/07 19:17:22;;;;;;;7.57;2.53;;;;;;;;;;4996070;28;92614;-78
2022/01/07 19:19:49;;;;;;;5.20;2.45;;;;;;;;;;4998492;28;95170;-78
2022/01/07 19:22:15;;;;;;;3.35;2.30;;;;;;;;;;4989736;28;92001;-77
2022/01/07 19:24:42;;;;;;;4.60;2.47;;;;;;;;;;4982117;28;92157;-78
2022/01/07 19:27:08;;;;;;;5.55;2.90;;;;;;;;;;4980270;28;92106;-78
2022/01/07 19:29:35;;;;;;;7.25;2.80;;;;;;;;;;4991933;28;91825;-78
2022/01/07 19:32:02;;;;;;;22.15;3.28;;;;;;;;;;4978554;28;92809;-77
2022/01/07 19:34:28;;;;;;;8.48;3.00;;;;;;;;;;4976578;28;92125;-77
2022/01/07 19:36:54;;;;;;;5.45;2.45;;;;;;;;;;4985327;28;92041;-77
2022/01/07 19:39:21;;;;;;;9.65;2.75;;;;;;;;;;4982471;28;92887;-77
2022/01/07 19:41:47;;;;;;;9.25;2.22;;;;;;;;;;4999742;28;92050;-77
2022/01/07 19:44:14;;;;;;;10.18;2.70;;;;;;;;;;4984229;28;92764;-78
2022/01/07 19:46:42;;;;;;;16.63;3.97;;;;;;;;;;4988947;28;91920;-77
2022/01/07 19:49:09;;;;;;;7.20;2.38;;;;;;;;;;4979374;28;92015;-78
2022/01/07 19:51:35;;;;;;;10.63;2.80;;;;;;;;;;4977903;28;93162;-77
2022/01/07 19:54:02;;;;;;;6.88;2.58;;;;;;;;;;4986099;28;92182;-78
2022/01/07 19:56:29;;;;;;;5.43;2.15;;;;;;;;;;4996383;28;91954;-77
2022/01/07 19:58:55;;;;;;;4.35;2.60;;;;;;;;;;4989183;28;91984;-78
2022/01/07 20:01:21;;;;;;;11.07;2.53;;;;;;;;;;4979552;28;92365;-78
2022/01/07 20:03:48;;;;;;;7.97;2.63;;;;;;;;;;4981901;28;93002;-77
2022/01/07 20:06:15;;;;;;;5.57;2.67;;;;;;;;;;4984857;28;92355;-77
2022/01/07 20:08:41;;;;;;;5.70;2.70;;;;;;;;;;4990408;28;92103;-77
2022/01/07 20:11:08;;;;;;;4.10;2.38;;;;;;;;;;4984546;28;93836;-77
2022/01/07 20:13:34;;;;;;;3.45;2.28;;;;;;;;;;4994412;28;92042;-77
2022/01/07 20:16:01;;;;;;;5.32;2.67;;;;;;;;;;4996227;28;91687;-77
2022/01/07 20:18:27;;;;;;;6.43;2.33;;;;;;;;;;4995838;28;93078;-78
2022/01/07 20:20:55;;;;;;;180.73;74.75;;;;;;;;;;4987200;28;92204;-77
2022/01/07 20:23:23;;;;;;;47.10;19.25;;;;;;;;;;4977170;28;92561;-78
2022/01/07 20:25:52;;;;;;;55.22;15.82;;;;;;;;;;4980185;28;92200;-77
2022/01/07 20:28:19;;;;;;;37.85;12.68;;;;;;;;;;4991146;28;94323;-78
2022/01/07 20:30:45;;;;;;;36.15;13.32;;;;;;;;;;4975473;28;92732;-77
2022/01/07 20:33:12;;;;;;;30.80;12.13;;;;;;;;;;4987752;28;92312;-78
2022/01/07 20:35:42;;;;;;;28.38;10.98;;;;;;;;;;4975240;28;91703;-77
2022/01/07 20:38:09;;;;;;;31.83;12.05;;;;;;;;;;4987256;28;92072;-77
2022/01/07 20:40:35;;;;;;;27.83;11.27;;;;;;;;;;4993363;28;91983;-78
2022/01/07 20:43:02;;;;;;;28.65;10.10;;;;;;;;;;4987705;28;92233;-78
2022/01/07 20:45:29;;;;;;;27.58;10.88;;;;;;;;;;4992363;28;92029;-77
2022/01/07 20:47:55;;;;;;;16.00;7.97;;;;;;;;;;4982528;28;92094;-77
2022/01/07 20:50:22;;;;;;;25.00;9.02;;;;;;;;;;4979144;28;92189;-77
2022/01/07 20:52:49;;;;;;;19.23;8.32;;;;;;;;;;4982361;28;93499;-77
2022/01/07 20:55:15;;;;;;;19.00;8.80;;;;;;;;;;4983730;28;92967;-78
2022/01/07 20:57:41;;;;;;;17.95;7.68;;;;;;;;;;4989674;28;93527;-77
2022/01/07 21:00:11;;;;;;;20.70;8.07;;;;;;;;;;4984860;28;92308;-77
2022/01/07 21:02:37;;;;;;;19.20;7.70;;;;;;;;;;4995209;28;92633;-78
2022/01/07 21:05:07;;;;;;;14.25;7.53;;;;;;;;;;4994925;28;91965;-77
2022/01/07 21:07:37;;;;;;;13.77;7.13;;;;;;;;;;4983391;28;92114;-78
2022/01/07 21:10:03;;;;;;;22.48;7.55;;;;;;;;;;4975999;28;91834;-77
2022/01/07 21:12:30;;;;;;;15.07;6.40;;;;;;;;;;4989933;28;91869;-77
2022/01/07 21:14:56;;;;;;;22.92;7.53;;;;;;;;;;4975511;28;92198;-78
2022/01/07 21:17:22;;;;;;;19.55;6.25;;;;;;;;;;4974735;28;92753;-78
2022/01/07 21:19:49;;;;;;;13.55;6.20;;;;;;;;;;4987772;28;92017;-77
2022/01/07 21:22:15;;;;;;;14.63;5.95;;;;;;;;;;4975870;28;92273;-77
2022/01/07 21:24:42;;;;;;;15.05;5.78;;;;;;;;;;4989293;28;93182;-77
2022/01/07 21:27:09;;;;;;;13.00;5.25;;;;;;;;;;4983745;28;92402;-78
2022/01/07 21:29:35;;;;;;;15.98;5.28;;;;;;;;;;4984404;28;91909;-77
2022/01/07 21:32:02;;;;;;;7.88;4.55;;;;;;;;;;4980261;28;92341;-78
2022/01/07 21:34:29;;;;;;;12.73;4.47;;;;;;;;;;4980522;28;92812;-77
2022/01/07 21:36:55;;;;;;;9.35;4.47;;;;;;;;;;4985044;28;91936;-77
2022/01/07 21:39:21;;;;;;;6.82;3.97;;;;;;;;;;4987490;28;91967;-78
2022/01/07 21:41:50;;;;;;;10.73;4.03;;;;;;;;;;4982986;28;92454;-77
2022/01/07 21:44:16;;;;;;;14.65;4.60;;;;;;;;;;4993865;28;92051;-77
2022/01/07 21:46:42;;;;;;;7.93;4.32;;;;;;;;;;4975699;28;91813;-77
2022/01/07 21:49:09;;;;;;;10.82;4.20;;;;;;;;;;4988160;28;92088;-77
2022/01/07 21:51:35;;;;;;;12.27;4.10;;;;;;;;;;4979560;28;92220;-78
2022/01/07 21:54:02;;;;;;;9.70;4.35;;;;;;;;;;4994865;28;92146;-78
2022/01/07 21:56:33;;;;;;;8.00;3.22;;;;;;;;;;4983986;28;91934;-78
2022/01/07 21:58:59;;;;;;;5.33;3.33;;;;;;;;;;4993539;28;91594;-77
2022/01/07 22:01:26;;;;;;;5.43;3.30;;;;;;;;;;4986213;28;91825;-78
2022/01/07 22:03:52;;;;;;;8.27;3.53;;;;;;;;;;4988504;28;92665;-78
2022/01/07 22:06:19;;;;;;;8.63;3.15;;;;;;;;;;4982238;28;92262;-78
2022/01/07 22:08:45;;;;;;;151.00;55.10;;;;;;;;;;4982563;28;92530;-78
2022/01/07 22:11:12;;;;;;;147.23;49.38;;;;;;;;;;4983198;28;92146;-78
2022/01/07 22:13:38;;;;;;;108.60;40.28;;;;;;;;;;4995377;28;91947;-78
2022/01/07 22:16:04;;;;;;;99.63;36.30;;;;;;;;;;4981001;28;93018;-78
2022/01/07 22:18:31;;;;;;;92.05;33.15;;;;;;;;;;4986989;28;92078;-78
2022/01/07 22:20:57;;;;;;;78.47;29.40;;;;;;;;;;4984229;28;92003;-78
2022/01/07 22:23:24;;;;;;;66.80;25.08;;;;;;;;;;4997921;28;92155;-78
2022/01/07 22:25:50;;;;;;;63.20;23.42;;;;;;;;;;4993671;28;91781;-78
2022/01/07 22:28:17;;;;;;;63.92;21.60;;;;;;;;;;4983055;28;91741;-78
2022/01/07 22:30:43;;;;;;;56.45;19.40;;;;;;;;;;4998228;28;92126;-78
2022/01/07 22:33:09;;;;;;;46.90;16.63;;;;;;;;;;4985168;28;91882;-78
2022/01/07 22:35:36;;;;;;;45.20;15.82;;;;;;;;;;4976953;28;91815;-78
2022/01/07 22:38:02;;;;;;;42.50;15.35;;;;;;;;;;4993113;28;91796;-78
2022/01/07 22:40:29;;;;;;;28.40;12.15;;;;;;;;;;4999344;28;92469;-78
2022/01/07 22:42:55;;;;;;;27.65;11.48;;;;;;;;;;4998409;28;92113;-78
2022/01/07 22:45:42;;;;;;;27.98;10.43;;;;;;;;;;4990322;28;91942;-78
2022/01/07 22:48:08;;;;;;;28.23;9.35;;;;;;;;;;4992745;28;91940;-78
2022/01/07 22:50:34;;;;;;;23.48;10.18;;;;;;;;;;4978278;28;92018;-78
2022/01/07 22:53:01;;;;;;;25.40;8.35;;;;;;;;;;4978197;28;92145;-77
2022/01/07 22:55:27;;;;;;;23.38;9.63;;;;;;;;;;4987645;28;92188;-78
2022/01/07 22:57:54;;;;;;;20.17;8.63;;;;;;;;;;4985135;28;92261;-78
2022/01/07 23:00:24;;;;;;;18.95;8.50;;;;;;;;;;4978276;28;93438;-77
2022/01/07 23:02:52;;;;;;;22.53;8.63;;;;;;;;;;4991236;28;94097;-77
2022/01/07 23:05:19;;;;;;;19.08;7.50;;;;;;;;;;4988539;28;91998;-78
2022/01/07 23:07:45;;;;;;;23.33;7.38;;;;;;;;;;4977244;28;92559;-78
2022/01/07 23:10:12;;;;;;;14.80;6.63;;;;;;;;;;4975706;28;93077;-78
2022/01/07 23:12:39;;;;;;;15.95;6.28;;;;;;;;;;4993292;28;92119;-78
2022/01/07 23:15:06;;;;;;;15.82;5.43;;;;;;;;;;4996836;28;92104;-78
2022/01/07 23:17:39;;;;;;;15.82;5.90;;;;;;;;;;4997195;28;92981;-78
2022/01/07 23:20:06;;;;;;;16.60;5.78;;;;;;;;;;4997184;28;92171;-78
2022/01/07 23:22:33;;;;;;;11.45;4.85;;;;;;;;;;4987048;28;93967;-78
2022/01/07 23:24:59;;;;;;;15.38;6.13;;;;;;;;;;4991942;28;92018;-78
2022/01/07 23:27:27;;;;;;;9.10;4.88;;;;;;;;;;4988717;28;92838;-78
2022/01/07 23:29:54;;;;;;;12.52;5.43;;;;;;;;;;4991352;28;91687;-78
2022/01/07 23:32:20;;;;;;;11.02;4.25;;;;;;;;;;4975650;28;92347;-78
2022/01/07 23:34:46;;;;;;;8.82;4.03;;;;;;;;;;4977562;28;91847;-78
2022/01/07 23:37:13;;;;;;;15.43;4.85;;;;;;;;;;4976608;28;92071;-78
2022/01/07 23:39:39;;;;;;;11.57;4.85;;;;;;;;;;4989239;28;92079;-78
2022/01/07 23:42:06;;;;;;;12.18;4.25;;;;;;;;;;4993859;28;92184;-78
2022/01/07 23:44:32;;;;;;;11.73;4.13;;;;;;;;;;4985335;28;92293;-78
2022/01/07 23:46:58;;;;;;;15.20;4.53;;;;;;;;;;4996145;28;91959;-78
2022/01/07 23:49:25;;;;;;;13.48;5.38;;;;;;;;;;4983665;28;93232;-78